createdAt,value
2022-10-26T00:01:05.962Z,18.90
2022-10-26T00:03:34.104Z,18.90
2022-10-26T00:06:12.687Z,18.90
2022-10-26T00:08:39.937Z,18.90
2022-10-26T00:11:07.643Z,18.90
2022-10-26T00:13:34.906Z,18.90
2022-10-26T00:16:02.077Z,18.80
2022-10-26T00:18:28.985Z,18.80
2022-10-26T00:20:55.795Z,18.90
2022-10-26T00:23:22.565Z,18.90
2022-10-26T00:25:56.874Z,18.80
2022-10-26T00:28:23.822Z,18.80
2022-10-26T00:30:51.295Z,18.80
2022-10-26T00:33:18.357Z,18.80
2022-10-26T00:35:49.337Z,18.80
2022-10-26T00:38:16.147Z,18.80
2022-10-26T00:40:44.237Z,18.80
2022-10-26T00:43:21.377Z,18.80
2022-10-26T00:45:51.437Z,18.80
2022-10-26T00:48:35.430Z,18.80
2022-10-26T00:51:08.916Z,18.80
2022-10-26T00:53:36.035Z,18.80
2022-10-26T00:56:03.818Z,18.80
2022-10-26T00:58:31.903Z,18.80
2022-10-26T01:00:58.691Z,18.80
2022-10-26T01:03:27.851Z,18.80
2022-10-26T01:05:57.530Z,18.80
2022-10-26T01:08:25.421Z,18.80
2022-10-26T01:10:52.685Z,18.80
2022-10-26T01:13:20.216Z,18.70
2022-10-26T01:16:12.211Z,18.70
2022-10-26T01:18:44.833Z,18.70
2022-10-26T01:21:14.935Z,18.70
2022-10-26T01:23:50.351Z,18.70
2022-10-26T01:26:49.404Z,18.70
2022-10-26T01:29:44.416Z,18.70
2022-10-26T01:32:16.375Z,18.70
2022-10-26T01:35:02.693Z,18.70
2022-10-26T01:37:32.870Z,18.70
2022-10-26T01:40:09.268Z,18.70
2022-10-26T01:42:39.548Z,18.70
2022-10-26T01:45:10.195Z,18.60
2022-10-26T01:47:38.604Z,18.60
2022-10-26T01:50:07.160Z,18.60
2022-10-26T01:52:34.324Z,18.60
2022-10-26T01:55:06.027Z,18.60
2022-10-26T01:57:36.644Z,18.60
2022-10-26T02:00:09.220Z,18.60
2022-10-26T02:02:43.768Z,18.60
2022-10-26T02:05:16.349Z,18.60
2022-10-26T02:08:20.271Z,18.60
2022-10-26T02:11:01.181Z,18.60
2022-10-26T02:13:39.967Z,18.60
2022-10-26T02:16:34.370Z,18.60
2022-10-26T02:19:02.852Z,18.60
2022-10-26T02:21:38.301Z,18.60
2022-10-26T02:26:42.024Z,18.60
2022-10-26T02:29:12.255Z,18.60
2022-10-26T02:31:42.699Z,18.60
2022-10-26T02:34:13.491Z,18.60
2022-10-26T02:36:44.875Z,18.60
2022-10-26T02:39:14.005Z,18.60
2022-10-26T02:41:43.781Z,18.60
2022-10-26T02:44:23.237Z,18.50
2022-10-26T02:46:51.587Z,18.50
2022-10-26T02:49:19.056Z,18.50
2022-10-26T02:51:45.900Z,18.50
2022-10-26T02:54:15.459Z,18.50
2022-10-26T02:56:49.064Z,18.50
2022-10-26T02:59:16.884Z,18.50
2022-10-26T03:01:44.969Z,18.50
2022-10-26T03:04:11.824Z,18.50
2022-10-26T03:06:38.585Z,18.50
2022-10-26T03:09:05.457Z,18.50
2022-10-26T03:11:32.324Z,18.50
2022-10-26T03:13:59.156Z,18.50
2022-10-26T03:16:26.176Z,18.50
2022-10-26T03:18:52.990Z,18.50
2022-10-26T03:21:19.889Z,18.50
2022-10-26T03:23:47.861Z,18.50
2022-10-26T03:26:14.669Z,18.50
2022-10-26T03:28:41.421Z,18.50
2022-10-26T03:31:08.391Z,18.40
2022-10-26T03:33:35.171Z,18.40
2022-10-26T03:36:01.977Z,18.40
2022-10-26T03:38:28.735Z,18.40
2022-10-26T03:40:55.648Z,18.40
2022-10-26T03:43:22.796Z,18.40
2022-10-26T03:45:49.718Z,18.40
2022-10-26T03:48:16.475Z,18.40
2022-10-26T03:50:43.252Z,18.40
2022-10-26T03:53:10.438Z,18.40
2022-10-26T03:55:37.318Z,18.40
2022-10-26T03:58:04.396Z,18.40
2022-10-26T04:00:31.105Z,18.40
2022-10-26T04:02:59.685Z,18.40
2022-10-26T04:05:28.640Z,18.40
2022-10-26T04:08:00.126Z,18.40
2022-10-26T04:10:27.800Z,18.40
2022-10-26T04:12:55.386Z,18.40
2022-10-26T04:15:22.839Z,18.40
2022-10-26T04:17:58.842Z,18.40
2022-10-26T04:20:27.281Z,18.30
2022-10-26T04:23:05.231Z,18.30
2022-10-26T04:25:33.676Z,18.30
2022-10-26T04:28:02.141Z,18.30
2022-10-26T04:30:29.671Z,18.30
2022-10-26T04:32:56.542Z,18.30
2022-10-26T04:35:23.731Z,18.30
2022-10-26T04:37:50.743Z,18.30
2022-10-26T04:40:17.506Z,18.30
2022-10-26T04:42:45.746Z,18.30
2022-10-26T04:45:14.722Z,18.30
2022-10-26T04:47:41.969Z,18.30
2022-10-26T04:50:10.746Z,18.30
2022-10-26T04:52:37.985Z,18.30
2022-10-26T04:55:06.201Z,18.30
2022-10-26T04:57:36.224Z,18.20
2022-10-26T05:00:04.753Z,18.20
2022-10-26T05:02:31.568Z,18.20
2022-10-26T05:04:58.464Z,18.20
2022-10-26T05:07:25.286Z,18.20
2022-10-26T05:09:52.086Z,18.20
2022-10-26T05:12:19.211Z,18.20
2022-10-26T05:14:46.029Z,18.20
2022-10-26T05:17:12.890Z,18.20
2022-10-26T05:19:39.875Z,18.20
2022-10-26T05:22:06.772Z,18.20
2022-10-26T05:24:33.553Z,18.20
2022-10-26T05:27:00.720Z,18.20
2022-10-26T05:29:27.516Z,18.20
2022-10-26T05:31:54.267Z,18.20
2022-10-26T05:34:21.039Z,18.20
2022-10-26T05:36:47.880Z,18.20
2022-10-26T05:39:14.631Z,18.20
2022-10-26T05:41:41.405Z,18.20
2022-10-26T05:44:08.190Z,18.20
2022-10-26T05:46:35.005Z,18.20
2022-10-26T05:49:01.772Z,18.20
2022-10-26T05:51:28.638Z,18.20
2022-10-26T05:53:55.425Z,18.20
2022-10-26T05:56:37.281Z,18.20
2022-10-26T05:59:05.669Z,18.10
2022-10-26T06:02:11.745Z,18.10
2022-10-26T06:04:47.812Z,18.20
2022-10-26T06:07:20.566Z,18.10
2022-10-26T06:09:48.046Z,18.10
2022-10-26T06:12:18.508Z,18.10
2022-10-26T06:14:46.838Z,18.10
2022-10-26T06:17:31.313Z,18.10
2022-10-26T06:20:38.575Z,18.10
2022-10-26T06:23:16.947Z,18.10
2022-10-26T06:25:56.033Z,18.10
2022-10-26T06:28:49.956Z,18.10
2022-10-26T06:31:18.225Z,18.10
2022-10-26T06:33:45.481Z,18.10
2022-10-26T06:36:26.931Z,18.10
2022-10-26T06:39:02.254Z,18.10
2022-10-26T06:41:32.406Z,18.10
2022-10-26T06:43:59.691Z,18.10
2022-10-26T06:46:41.748Z,18.10
2022-10-26T06:49:23.163Z,18.10
2022-10-26T06:51:57.328Z,18.10
2022-10-26T06:54:45.451Z,18.10
2022-10-26T06:57:14.152Z,18.10
2022-10-26T06:59:44.413Z,18.10
2022-10-26T07:02:12.566Z,18.10
2022-10-26T07:04:39.455Z,18.10
2022-10-26T07:07:06.369Z,18.10
2022-10-26T07:09:33.178Z,18.10
2022-10-26T07:12:00.111Z,18.10
2022-10-26T07:14:26.902Z,18.00
2022-10-26T07:16:54.462Z,18.10
2022-10-26T07:19:21.215Z,18.10
2022-10-26T07:21:47.943Z,18.00
2022-10-26T07:24:14.706Z,18.10
2022-10-26T07:26:41.517Z,18.10
2022-10-26T07:29:08.269Z,18.10
2022-10-26T07:31:35.085Z,18.10
2022-10-26T07:34:02.548Z,18.10
2022-10-26T07:36:29.756Z,18.10
2022-10-26T07:38:56.481Z,18.00
2022-10-26T07:41:23.284Z,18.10
2022-10-26T07:43:50.751Z,18.00
2022-10-26T07:46:18.406Z,18.00
2022-10-26T07:51:16.975Z,18.10
2022-10-26T07:53:43.810Z,18.00
2022-10-26T07:56:11.027Z,18.10
2022-10-26T07:58:38.170Z,18.10
2022-10-26T08:01:10.599Z,18.10
2022-10-26T08:03:37.497Z,18.00
2022-10-26T08:06:05.095Z,18.10
2022-10-26T08:08:32.581Z,18.10
2022-10-26T08:10:59.600Z,18.10
2022-10-26T08:13:26.569Z,18.00
2022-10-26T08:16:00.299Z,18.00
2022-10-26T08:18:27.390Z,18.00
2022-10-26T08:21:01.777Z,18.10
2022-10-26T08:23:36.981Z,18.00
2022-10-26T08:26:04.458Z,18.00
2022-10-26T08:28:31.273Z,18.10
2022-10-26T08:30:58.489Z,18.10
2022-10-26T08:33:25.400Z,18.10
2022-10-26T08:35:59.973Z,18.10
2022-10-26T08:38:27.103Z,18.10
2022-10-26T08:40:55.868Z,18.10
2022-10-26T08:43:40.839Z,18.10
2022-10-26T08:46:19.248Z,18.10
2022-10-26T08:49:00.617Z,18.10
2022-10-26T08:51:35.433Z,18.10
2022-10-26T08:54:16.783Z,18.10
2022-10-26T08:56:54.344Z,18.10
2022-10-26T08:59:47.911Z,18.10
2022-10-26T09:02:16.979Z,18.10
2022-10-26T09:04:44.345Z,18.10
2022-10-26T09:07:42.933Z,18.10
2022-10-26T09:13:17.251Z,18.10
2022-10-26T09:15:52.850Z,18.10
2022-10-26T09:18:30.693Z,18.20
2022-10-26T09:21:15.713Z,18.20
2022-10-26T09:24:01.257Z,18.20
2022-10-26T09:26:45.195Z,18.20
2022-10-26T09:29:14.269Z,18.20
2022-10-26T09:31:44.524Z,18.20
2022-10-26T09:34:25.351Z,18.20
2022-10-26T09:36:56.093Z,18.20
2022-10-26T09:39:33.641Z,18.20
2022-10-26T09:42:26.020Z,18.20
2022-10-26T09:45:00.416Z,18.20
2022-10-26T09:47:39.676Z,18.20
2022-10-26T09:50:33.311Z,18.20
2022-10-26T09:52:59.977Z,18.20
2022-10-26T09:55:27.733Z,18.20
2022-10-26T09:57:57.622Z,18.30
2022-10-26T10:00:26.090Z,18.30
2022-10-26T10:02:55.209Z,18.30
2022-10-26T10:05:32.560Z,18.30
2022-10-26T10:08:19.158Z,18.30
2022-10-26T10:11:06.633Z,18.30
2022-10-26T10:13:36.373Z,18.40
2022-10-26T10:16:10.403Z,18.40
2022-10-26T10:18:39.066Z,18.40
2022-10-26T10:21:07.023Z,18.40
2022-10-26T10:23:36.833Z,18.40
2022-10-26T10:26:08.708Z,18.50
2022-10-26T10:28:35.820Z,18.50
2022-10-26T10:31:05.669Z,18.50
2022-10-26T10:33:42.680Z,18.50
2022-10-26T10:36:15.739Z,18.50
2022-10-26T10:38:45.147Z,18.50
2022-10-26T10:41:36.746Z,18.60
2022-10-26T10:44:08.963Z,18.60
2022-10-26T10:46:37.695Z,18.60
2022-10-26T10:49:15.878Z,18.60
2022-10-26T10:51:44.073Z,18.60
2022-10-26T10:54:25.675Z,18.60
2022-10-26T10:56:55.505Z,18.60
2022-10-26T10:59:32.845Z,18.70
2022-10-26T11:02:20.660Z,18.70
2022-10-26T11:05:08.855Z,18.70
2022-10-26T11:07:47.908Z,18.70
2022-10-26T11:10:17.672Z,18.70
2022-10-26T11:12:51.726Z,18.70
2022-10-26T11:15:23.439Z,18.70
2022-10-26T11:18:15.848Z,18.70
2022-10-26T11:20:51.854Z,18.70
2022-10-26T11:23:43.916Z,18.80
2022-10-26T11:26:21.271Z,18.80
2022-10-26T11:28:58.543Z,18.80
2022-10-26T11:31:35.704Z,18.80
2022-10-26T11:34:13.005Z,18.80
2022-10-26T11:36:42.142Z,18.80
2022-10-26T11:39:31.763Z,18.80
2022-10-26T11:42:11.689Z,18.80
2022-10-26T11:44:52.731Z,18.80
2022-10-26T11:47:38.920Z,18.80
2022-10-26T11:50:23.001Z,18.80
2022-10-26T11:52:58.707Z,18.80
2022-10-26T11:55:25.913Z,18.80
2022-10-26T11:57:54.319Z,18.80
2022-10-26T12:00:22.366Z,18.80
2022-10-26T12:03:09.413Z,18.80
2022-10-26T12:05:51.189Z,18.80
2022-10-26T12:08:27.934Z,18.80
2022-10-26T12:11:36.813Z,18.80
2022-10-26T12:14:15.764Z,18.80
2022-10-26T12:16:52.463Z,18.80
2022-10-26T12:21:58.452Z,18.80
2022-10-26T12:24:35.575Z,18.80
2022-10-26T12:27:06.404Z,18.80
2022-10-26T12:29:47.797Z,18.80
2022-10-26T12:32:32.902Z,18.80
2022-10-26T12:35:02.126Z,18.80
2022-10-26T12:37:37.692Z,18.80
2022-10-26T12:40:42.899Z,18.80
2022-10-26T12:43:15.869Z,18.80
2022-10-26T12:45:45.135Z,18.80
2022-10-26T12:48:27.941Z,18.80
2022-10-26T12:51:24.679Z,18.80
2022-10-26T12:54:16.119Z,18.80
2022-10-26T12:57:00.472Z,18.80
2022-10-26T12:59:52.444Z,18.80
2022-10-26T13:02:28.042Z,18.70
2022-10-26T13:05:15.935Z,18.80
2022-10-26T13:07:43.004Z,18.80
2022-10-26T13:10:12.427Z,18.80
2022-10-26T13:12:52.504Z,18.80
2022-10-26T13:15:33.143Z,18.80
2022-10-26T13:18:08.683Z,18.80
2022-10-26T13:20:37.866Z,18.80
2022-10-26T13:23:16.881Z,18.80
2022-10-26T13:26:21.543Z,18.80
2022-10-26T13:28:54.205Z,18.80
2022-10-26T13:31:32.785Z,18.80
2022-10-26T13:34:09.989Z,18.80
2022-10-26T13:36:39.027Z,18.80
2022-10-26T13:39:28.824Z,18.80
2022-10-26T13:41:58.612Z,18.80
2022-10-26T13:44:34.476Z,18.80
2022-10-26T13:47:17.803Z,18.80
2022-10-26T13:49:45.931Z,18.80
2022-10-26T13:52:18.013Z,18.80
2022-10-26T13:55:09.608Z,18.80
2022-10-26T13:57:42.237Z,18.80
2022-10-26T14:00:20.406Z,18.80
2022-10-26T14:02:48.663Z,18.80
2022-10-26T14:05:18.639Z,18.80
2022-10-26T14:08:00.043Z,18.80
2022-10-26T14:10:40.367Z,18.80
2022-10-26T14:13:09.360Z,18.80
2022-10-26T14:15:36.740Z,18.80
2022-10-26T14:18:04.491Z,18.80
2022-10-26T14:20:32.128Z,18.80
2022-10-26T14:22:59.060Z,18.80
2022-10-26T14:25:41.784Z,18.90
2022-10-26T14:28:47.620Z,18.90
2022-10-26T14:31:22.544Z,18.90
2022-10-26T14:33:49.416Z,18.90
2022-10-26T14:36:17.406Z,18.90
2022-10-26T14:38:47.678Z,18.90
2022-10-26T14:41:17.528Z,18.90
2022-10-26T14:43:45.725Z,18.90
2022-10-26T14:46:21.579Z,18.90
2022-10-26T14:49:06.324Z,18.80
2022-10-26T14:51:36.259Z,18.90
2022-10-26T14:54:04.217Z,18.90
2022-10-26T14:56:37.164Z,18.90
2022-10-26T14:59:31.362Z,18.90
2022-10-26T15:02:19.649Z,18.90
2022-10-26T15:05:15.940Z,18.90
2022-10-26T15:07:44.623Z,18.90
2022-10-26T15:10:36.332Z,18.90
2022-10-26T15:13:18.106Z,18.90
2022-10-26T15:15:48.531Z,18.80
2022-10-26T15:18:32.891Z,18.80
2022-10-26T15:20:59.937Z,18.90
2022-10-26T15:23:29.361Z,18.90
2022-10-26T15:26:02.626Z,18.90
2022-10-26T15:28:37.039Z,18.90
2022-10-26T15:31:24.504Z,18.90
2022-10-26T15:33:51.239Z,18.90
2022-10-26T15:36:24.184Z,18.90
2022-10-26T15:38:51.844Z,18.90
2022-10-26T15:41:29.659Z,18.90
2022-10-26T15:44:02.885Z,18.90
2022-10-26T15:46:34.873Z,18.90
2022-10-26T15:49:04.198Z,18.90
2022-10-26T15:51:31.239Z,18.90
2022-10-26T15:53:58.757Z,18.90
2022-10-26T15:56:26.616Z,18.90
2022-10-26T15:58:54.889Z,18.90
2022-10-26T16:01:26.710Z,18.90
2022-10-26T16:03:53.850Z,18.90
2022-10-26T16:06:47.129Z,18.90
2022-10-26T16:09:16.795Z,18.90
2022-10-26T16:11:44.552Z,18.90
2022-10-26T16:14:13.010Z,18.90
2022-10-26T16:16:41.436Z,18.90
2022-10-26T16:19:29.822Z,18.90
2022-10-26T16:21:57.623Z,18.90
2022-10-26T16:24:24.592Z,18.90
2022-10-26T16:26:53.381Z,18.90
2022-10-26T16:29:20.708Z,18.90
2022-10-26T16:31:48.235Z,18.90
2022-10-26T16:34:14.999Z,18.90
2022-10-26T16:36:41.848Z,18.90
2022-10-26T16:39:12.115Z,18.90
2022-10-26T16:41:38.893Z,18.90
2022-10-26T16:44:05.696Z,18.90
2022-10-26T16:46:32.681Z,18.90
2022-10-26T16:48:59.885Z,18.90
2022-10-26T16:51:28.254Z,18.90
2022-10-26T16:53:56.838Z,18.90
2022-10-26T16:56:27.060Z,18.90
2022-10-26T16:58:54.617Z,18.90
2022-10-26T17:01:21.845Z,18.90
2022-10-26T17:03:50.504Z,18.90
2022-10-26T17:06:18.188Z,18.90
2022-10-26T17:08:45.127Z,18.90
2022-10-26T17:11:14.758Z,18.90
2022-10-26T17:13:42.223Z,18.90
2022-10-26T17:16:17.605Z,18.90
2022-10-26T17:18:45.557Z,18.90
2022-10-26T17:21:13.964Z,18.90
2022-10-26T17:23:41.095Z,18.90
2022-10-26T17:26:09.954Z,18.90
2022-10-26T17:28:36.906Z,18.90
2022-10-26T17:31:04.890Z,19.00
2022-10-26T17:33:35.716Z,18.90
2022-10-26T17:36:04.136Z,18.90
2022-10-26T17:38:36.459Z,19.00
2022-10-26T17:41:08.666Z,18.90
2022-10-26T17:43:37.829Z,18.90
2022-10-26T17:46:10.485Z,18.90
2022-10-26T17:48:37.390Z,18.90
2022-10-26T17:51:06.667Z,19.00
2022-10-26T17:53:33.552Z,18.90
2022-10-26T17:56:05.952Z,19.00
2022-10-26T17:58:33.824Z,19.00
2022-10-26T18:01:02.619Z,19.00
2022-10-26T18:03:29.920Z,19.00
2022-10-26T18:05:57.112Z,19.00
2022-10-26T18:08:24.165Z,19.00
2022-10-26T18:10:53.431Z,19.00
2022-10-26T18:13:20.199Z,19.00
2022-10-26T18:15:47.355Z,19.00
2022-10-26T18:18:14.174Z,19.00
2022-10-26T18:20:40.916Z,19.00
2022-10-26T18:23:07.625Z,19.00
2022-10-26T18:25:36.059Z,19.00
2022-10-26T18:28:03.371Z,19.00
2022-10-26T18:30:30.206Z,19.00
2022-10-26T18:32:56.915Z,19.00
2022-10-26T18:35:24.225Z,19.00
2022-10-26T18:37:51.287Z,19.00
2022-10-26T18:40:18.291Z,19.00
2022-10-26T18:42:45.055Z,19.00
2022-10-26T18:45:11.943Z,19.00
2022-10-26T18:47:38.729Z,19.00
2022-10-26T18:50:05.910Z,19.00
2022-10-26T18:52:32.774Z,19.00
2022-10-26T18:54:59.667Z,19.00
2022-10-26T18:57:28.768Z,19.00
2022-10-26T18:59:55.580Z,19.00
2022-10-26T19:02:22.953Z,19.00
2022-10-26T19:04:51.544Z,19.00
2022-10-26T19:07:18.831Z,19.00
2022-10-26T19:09:45.545Z,19.00
2022-10-26T19:12:12.304Z,19.00
2022-10-26T19:14:39.099Z,19.00
2022-10-26T19:17:05.939Z,19.00
2022-10-26T19:19:32.784Z,19.00
2022-10-26T19:22:00.942Z,19.00
2022-10-26T19:24:27.751Z,19.00
2022-10-26T19:26:54.663Z,19.00
2022-10-26T19:29:21.535Z,19.10
2022-10-26T19:31:51.741Z,19.10
2022-10-26T19:34:19.172Z,19.00
2022-10-26T19:36:47.183Z,19.00
2022-10-26T19:39:17.984Z,19.10
2022-10-26T19:41:45.974Z,19.10
2022-10-26T19:44:14.750Z,19.10
2022-10-26T19:46:43.156Z,19.10
2022-10-26T19:49:09.949Z,19.10
2022-10-26T19:51:36.718Z,19.10
2022-10-26T19:54:05.923Z,19.00
2022-10-26T19:56:34.045Z,19.10
2022-10-26T19:59:01.543Z,19.10
2022-10-26T20:01:28.841Z,19.10
2022-10-26T20:03:55.773Z,19.10
2022-10-26T20:06:22.836Z,19.00
2022-10-26T20:08:50.141Z,19.00
2022-10-26T20:11:18.103Z,19.10
2022-10-26T20:13:46.261Z,19.10
2022-10-26T20:16:13.847Z,19.10
2022-10-26T20:18:44.119Z,19.10
2022-10-26T20:21:16.607Z,19.10
2022-10-26T20:23:44.278Z,19.10
2022-10-26T20:26:18.240Z,19.00
2022-10-26T20:28:47.720Z,19.10
2022-10-26T20:31:14.917Z,19.10
2022-10-26T20:33:41.808Z,19.10
2022-10-26T20:36:08.802Z,19.10
2022-10-26T20:38:35.983Z,19.00
2022-10-26T20:41:06.254Z,19.10
2022-10-26T20:43:38.916Z,19.00
2022-10-26T20:46:06.948Z,19.00
2022-10-26T20:48:34.189Z,19.00
2022-10-26T20:51:26.293Z,19.00
2022-10-26T20:54:11.746Z,19.00
2022-10-26T20:56:43.593Z,19.00
2022-10-26T20:59:26.726Z,19.00
2022-10-26T21:01:53.845Z,19.00
2022-10-26T21:04:20.592Z,19.00
2022-10-26T21:06:47.390Z,19.00
2022-10-26T21:09:14.337Z,19.00
2022-10-26T21:11:41.156Z,19.00
2022-10-26T21:14:07.955Z,19.00
2022-10-26T21:16:34.908Z,19.00
2022-10-26T21:19:04.801Z,19.00
2022-10-26T21:21:31.734Z,19.00
2022-10-26T21:23:58.583Z,19.00
2022-10-26T21:26:25.384Z,19.00
2022-10-26T21:28:52.121Z,19.00
2022-10-26T21:31:21.156Z,19.00
2022-10-26T21:33:48.288Z,19.00
2022-10-26T21:36:15.793Z,19.00
2022-10-26T21:38:44.688Z,19.00
2022-10-26T21:41:17.154Z,19.00
2022-10-26T21:43:46.269Z,19.00
2022-10-26T21:46:13.661Z,19.00
2022-10-26T21:48:43.620Z,19.00
2022-10-26T21:51:20.384Z,19.00
2022-10-26T21:53:48.296Z,19.00
2022-10-26T21:56:20.085Z,19.00
2022-10-26T21:58:47.792Z,19.00
2022-10-26T22:01:20.623Z,19.00
2022-10-26T22:03:48.354Z,19.00
2022-10-26T22:08:51.975Z,19.00
2022-10-26T22:11:21.897Z,19.00
2022-10-26T22:13:50.055Z,19.00
2022-10-26T22:16:20.551Z,19.00
2022-10-26T22:18:49.266Z,19.00
2022-10-26T22:21:17.463Z,19.00
2022-10-26T22:23:45.253Z,19.00
2022-10-26T22:26:23.248Z,19.00
2022-10-26T22:28:52.555Z,19.00
2022-10-26T22:31:28.054Z,19.00
2022-10-26T22:33:57.023Z,19.00
2022-10-26T22:36:24.893Z,19.00
2022-10-26T22:38:52.228Z,19.00
2022-10-26T22:41:20.264Z,19.00
2022-10-26T22:43:47.169Z,19.00
2022-10-26T22:46:22.083Z,19.00
2022-10-26T22:48:56.896Z,19.00
2022-10-26T22:51:25.252Z,19.00
2022-10-26T22:53:56.624Z,19.00
2022-10-26T22:58:57.236Z,19.00
2022-10-26T23:01:26.416Z,19.00
2022-10-26T23:03:56.137Z,19.00
2022-10-26T23:06:24.826Z,19.00
2022-10-26T23:08:52.111Z,19.00
2022-10-26T23:11:20.126Z,19.00
2022-10-26T23:13:47.739Z,19.00
2022-10-26T23:16:20.402Z,18.90
2022-10-26T23:18:48.438Z,18.90
2022-10-26T23:21:17.180Z,18.90
2022-10-26T23:23:44.129Z,18.90
2022-10-26T23:26:13.537Z,18.90
2022-10-26T23:28:41.062Z,19.00
2022-10-26T23:31:08.524Z,18.90
2022-10-26T23:33:35.225Z,19.00
2022-10-26T23:36:02.106Z,18.90
2022-10-26T23:38:29.039Z,18.90
2022-10-26T23:40:58.615Z,18.90
2022-10-26T23:43:27.139Z,18.90
2022-10-26T23:45:55.270Z,18.90
2022-10-26T23:48:22.463Z,18.90
2022-10-26T23:50:50.956Z,18.90
2022-10-26T23:53:20.767Z,18.90
2022-10-26T23:55:48.206Z,18.90
2022-10-26T23:58:16.955Z,18.90
